Time;durP1;ratioP1;P1;durP2;ratioP2;P2;SDS_P1;SDS_P2;PMS_P1;PMS_P2;Temp;Humidity;BMP_temperature;BMP_pressure;BME280_temperature;BME280_humidity;BME280_pressure;Samples;Min_cycle;Max_cycle;Signal;HPM_P1;HPM_P2
2023/08/07 00:00:17;;;;;;;14.70;4.10;;;;;;;;;;5012716;28;20258;-81
2023/08/07 00:02:46;;;;;;;3.53;1.80;;;;;;;;;;5013218;28;20263;-88
2023/08/07 00:05:14;;;;;;;3.07;2.27;;;;;;;;;;5013187;28;20228;-88
2023/08/07 00:07:43;;;;;;;8.10;3.17;;;;;;;;;;5013025;28;20299;-88
2023/08/07 00:10:11;;;;;;;7.33;2.93;;;;;;;;;;5012849;28;20203;-88
2023/08/07 00:12:39;;;;;;;5.17;1.93;;;;;;;;;;5013622;28;20212;-87
2023/08/07 00:15:08;;;;;;;8.00;3.17;;;;;;;;;;5012715;28;20228;-88
2023/08/07 00:17:38;;;;;;;4.70;2.43;;;;;;;;;;5012094;28;20207;-87
2023/08/07 00:20:07;;;;;;;10.27;3.63;;;;;;;;;;5013316;28;20200;-81
2023/08/07 00:22:36;;;;;;;0.40;0.40;;;;;;;;;;5013099;28;20263;-81
2023/08/07 00:25:04;;;;;;;0.30;0.30;;;;;;;;;;5012684;28;20227;-81
2023/08/07 00:27:33;;;;;;;0.30;0.30;;;;;;;;;;5012807;28;20204;-81
2023/08/07 00:30:05;;;;;;;0.40;0.40;;;;;;;;;;5013028;28;20204;-81
2023/08/07 00:32:33;;;;;;;0.30;0.30;;;;;;;;;;5012838;28;20206;-81
2023/08/07 00:35:04;;;;;;;0.40;0.40;;;;;;;;;;5012449;28;20222;-81
2023/08/07 00:37:32;;;;;;;0.30;0.30;;;;;;;;;;5012883;28;20262;-81
2023/08/07 00:40:01;;;;;;;10.60;4.07;;;;;;;;;;5013117;28;20282;-81
2023/08/07 00:42:29;;;;;;;12.17;3.47;;;;;;;;;;5012691;28;20200;-81
2023/08/07 00:44:58;;;;;;;10.87;3.30;;;;;;;;;;5012662;28;20311;-81
2023/08/07 00:47:27;;;;;;;7.30;3.60;;;;;;;;;;5015973;28;20200;-81
2023/08/07 00:49:57;;;;;;;5.47;2.90;;;;;;;;;;5016224;28;20246;-81
2023/08/07 00:52:27;;;;;;;7.03;2.53;;;;;;;;;;5016075;28;20206;-81
2023/08/07 00:54:56;;;;;;;6.67;3.50;;;;;;;;;;5016474;28;20211;-81
2023/08/07 00:57:24;;;;;;;2.57;2.00;;;;;;;;;;5016019;28;20257;-81
2023/08/07 00:59:53;;;;;;;35.93;3.27;;;;;;;;;;5015750;28;20204;-81
2023/08/07 01:02:21;;;;;;;10.03;3.00;;;;;;;;;;5015802;28;20203;-81
2023/08/07 01:04:51;;;;;;;8.70;3.23;;;;;;;;;;5015843;28;20224;-81
2023/08/07 01:07:19;;;;;;;7.83;4.33;;;;;;;;;;5015767;28;20208;-80
2023/08/07 01:09:49;;;;;;;7.67;2.20;;;;;;;;;;5015519;28;20204;-80
2023/08/07 01:12:20;;;;;;;3.37;1.87;;;;;;;;;;5015606;28;20208;-80
2023/08/07 01:14:52;;;;;;;2.57;2.07;;;;;;;;;;5015512;28;20242;-80
2023/08/07 01:17:22;;;;;;;7.40;2.53;;;;;;;;;;5015055;28;20188;-80
2023/08/07 01:19:51;;;;;;;9.53;4.17;;;;;;;;;;5015171;28;20250;-80
2023/08/07 01:22:21;;;;;;;5.63;3.17;;;;;;;;;;5015510;28;20211;-80
2023/08/07 01:24:51;;;;;;;3.13;1.23;;;;;;;;;;5015132;28;20200;-81
2023/08/07 01:27:26;;;;;;;10.57;2.80;;;;;;;;;;5014851;28;20199;-80
2023/08/07 01:29:58;;;;;;;4.60;2.90;;;;;;;;;;5015584;28;20203;-80
2023/08/07 01:32:29;;;;;;;5.37;3.17;;;;;;;;;;5015653;28;20200;-80
2023/08/07 01:34:58;;;;;;;8.40;2.33;;;;;;;;;;5015261;28;20209;-80
2023/08/07 01:37:29;;;;;;;16.47;3.07;;;;;;;;;;5015391;28;20204;-80
2023/08/07 01:39:59;;;;;;;11.87;2.83;;;;;;;;;;5015569;28;20203;-80
2023/08/07 01:42:27;;;;;;;5.83;2.27;;;;;;;;;;5015488;28;20292;-81
2023/08/07 01:44:56;;;;;;;3.43;1.67;;;;;;;;;;5015155;28;20211;-80
2023/08/07 01:47:24;;;;;;;6.93;2.00;;;;;;;;;;5014714;28;20201;-80
2023/08/07 01:49:53;;;;;;;7.80;2.60;;;;;;;;;;5015006;28;20307;-80
2023/08/07 01:52:22;;;;;;;5.03;1.87;;;;;;;;;;5014525;28;20204;-87
2023/08/07 01:54:51;;;;;;;3.40;3.10;;;;;;;;;;5017724;28;20255;-87
2023/08/07 01:57:20;;;;;;;11.70;3.87;;;;;;;;;;5015460;28;20192;-87
2023/08/07 01:59:48;;;;;;;4.90;2.57;;;;;;;;;;5017449;28;20255;-86
2023/08/07 02:02:17;;;;;;;12.30;3.77;;;;;;;;;;5016835;28;20211;-88
2023/08/07 02:04:45;;;;;;;3.27;3.00;;;;;;;;;;5015645;28;20243;-88
2023/08/07 02:07:14;;;;;;;3.43;1.90;;;;;;;;;;5015096;28;20226;-87
2023/08/07 02:09:42;;;;;;;9.27;3.00;;;;;;;;;;5015040;28;20255;-86
2023/08/07 02:12:12;;;;;;;10.17;3.90;;;;;;;;;;5014091;28;20212;-88
2023/08/07 02:14:41;;;;;;;3.83;2.33;;;;;;;;;;5014525;28;20233;-88
2023/08/07 02:17:09;;;;;;;5.27;1.80;;;;;;;;;;5014617;28;20220;-88
2023/08/07 02:19:37;;;;;;;5.07;2.93;;;;;;;;;;5014746;28;20201;-89
2023/08/07 02:22:06;;;;;;;4.37;2.67;;;;;;;;;;5014760;28;20207;-87
2023/08/07 02:24:35;;;;;;;5.10;2.17;;;;;;;;;;5014466;28;20224;-88
2023/08/07 02:27:03;;;;;;;3.60;2.23;;;;;;;;;;5014760;28;20231;-87
2023/08/07 02:29:34;;;;;;;3.10;2.00;;;;;;;;;;5014686;28;20215;-87
2023/08/07 02:32:03;;;;;;;0.30;0.30;;;;;;;;;;5014727;28;20200;-88
2023/08/07 02:34:32;;;;;;;0.30;0.30;;;;;;;;;;5014702;28;20231;-88
2023/08/07 02:37:00;;;;;;;0.40;0.40;;;;;;;;;;5014060;28;20243;-88
2023/08/07 02:39:29;;;;;;;0.40;0.40;;;;;;;;;;5013628;28;20206;-89
2023/08/07 02:41:57;;;;;;;0.30;0.30;;;;;;;;;;5014119;28;20453;-87
2023/08/07 02:44:25;;;;;;;0.40;0.40;;;;;;;;;;5014333;28;20204;-87
2023/08/07 02:46:55;;;;;;;0.30;0.30;;;;;;;;;;5013876;28;20223;-88
2023/08/07 02:49:24;;;;;;;0.30;0.30;;;;;;;;;;5014153;28;20207;-88
2023/08/07 02:51:53;;;;;;;0.30;0.30;;;;;;;;;;5014931;28;20302;-88
2023/08/07 02:54:21;;;;;;;0.30;0.30;;;;;;;;;;5014395;28;20215;-88
2023/08/07 02:56:50;;;;;;;0.30;0.30;;;;;;;;;;5014013;28;20200;-88
2023/08/07 02:59:18;;;;;;;0.30;0.30;;;;;;;;;;5013935;28;20207;-88
2023/08/07 03:01:49;;;;;;;0.30;0.30;;;;;;;;;;5014104;28;20203;-89
2023/08/07 03:04:19;;;;;;;0.30;0.30;;;;;;;;;;5014513;28;20240;-88
2023/08/07 03:06:48;;;;;;;0.30;0.30;;;;;;;;;;5014133;28;20218;-87
2023/08/07 03:09:16;;;;;;;0.40;0.40;;;;;;;;;;5013494;28;20200;-88
2023/08/07 03:11:45;;;;;;;0.40;0.40;;;;;;;;;;5013525;28;20200;-88
2023/08/07 03:14:13;;;;;;;0.30;0.30;;;;;;;;;;5013466;28;20300;-88
2023/08/07 03:16:42;;;;;;;0.30;0.30;;;;;;;;;;5014349;28;20196;-87
2023/08/07 03:19:10;;;;;;;0.30;0.30;;;;;;;;;;5013634;28;20211;-88
2023/08/07 03:21:40;;;;;;;0.30;0.30;;;;;;;;;;5013655;28;20201;-85
2023/08/07 03:24:08;;;;;;;0.40;0.40;;;;;;;;;;5013428;28;20204;-88
2023/08/07 03:26:40;;;;;;;0.40;0.40;;;;;;;;;;5013330;28;20245;-87
2023/08/07 03:29:09;;;;;;;0.40;0.40;;;;;;;;;;5013094;28;20203;-88
2023/08/07 03:31:37;;;;;;;0.30;0.30;;;;;;;;;;5012965;28;20208;-87
2023/08/07 03:34:06;;;;;;;0.40;0.40;;;;;;;;;;5013287;28;20249;-88
2023/08/07 03:36:34;;;;;;;0.40;0.40;;;;;;;;;;5013080;28;20216;-87
2023/08/07 03:39:04;;;;;;;0.30;0.30;;;;;;;;;;5012321;28;20196;-88
2023/08/07 03:41:33;;;;;;;0.40;0.40;;;;;;;;;;5012629;28;20204;-89
2023/08/07 03:44:01;;;;;;;0.40;0.40;;;;;;;;;;5012677;28;20210;-88
2023/08/07 03:46:29;;;;;;;0.40;0.40;;;;;;;;;;5013118;28;20271;-87
2023/08/07 03:48:58;;;;;;;0.40;0.40;;;;;;;;;;5012272;28;20227;-89
2023/08/07 03:51:26;;;;;;;4.10;2.33;;;;;;;;;;5013198;28;20210;-88
2023/08/07 03:53:55;;;;;;;9.17;3.87;;;;;;;;;;5012704;28;20212;-89
2023/08/07 03:56:25;;;;;;;6.47;2.90;;;;;;;;;;5012890;28;20203;-87
2023/08/07 03:58:53;;;;;;;11.93;3.87;;;;;;;;;;5012518;28;20204;-89
2023/08/07 04:01:22;;;;;;;5.27;3.43;;;;;;;;;;5012728;28;20254;-88
2023/08/07 04:03:50;;;;;;;10.63;4.03;;;;;;;;;;5012582;28;20224;-88
2023/08/07 04:06:20;;;;;;;13.03;3.43;;;;;;;;;;5012872;28;20204;-88
2023/08/07 04:08:49;;;;;;;11.30;3.37;;;;;;;;;;5012710;28;20200;-88
2023/08/07 04:11:17;;;;;;;10.53;4.63;;;;;;;;;;5012791;28;20196;-89
2023/08/07 04:13:47;;;;;;;8.40;3.60;;;;;;;;;;5013086;28;20223;-86
2023/08/07 04:16:16;;;;;;;9.57;3.23;;;;;;;;;;5012491;28;20253;-87
2023/08/07 04:18:45;;;;;;;8.03;3.53;;;;;;;;;;5012869;28;20209;-88
2023/08/07 04:21:13;;;;;;;1.50;1.40;;;;;;;;;;5014380;28;20202;-88
2023/08/07 04:23:42;;;;;;;6.23;2.80;;;;;;;;;;5017092;28;20270;-88
2023/08/07 04:26:11;;;;;;;15.27;4.23;;;;;;;;;;5016824;28;20243;-88
2023/08/07 04:28:39;;;;;;;16.40;3.57;;;;;;;;;;5016580;28;20234;-88
2023/08/07 04:31:09;;;;;;;14.60;3.73;;;;;;;;;;5016915;28;20207;-88
2023/08/07 04:33:37;;;;;;;8.80;3.83;;;;;;;;;;5016872;28;20207;-89
2023/08/07 04:36:06;;;;;;;21.03;4.87;;;;;;;;;;5016912;28;20192;-86
2023/08/07 04:38:35;;;;;;;11.37;4.50;;;;;;;;;;5016944;28;20195;-88
2023/08/07 04:41:04;;;;;;;9.87;3.97;;;;;;;;;;5016443;28;20219;-87
2023/08/07 04:43:32;;;;;;;9.67;3.80;;;;;;;;;;5017110;28;20204;-87
2023/08/07 04:46:01;;;;;;;5.77;3.90;;;;;;;;;;5017278;28;20199;-87
2023/08/07 04:48:31;;;;;;;4.87;2.90;;;;;;;;;;5016700;28;20219;-87
2023/08/07 04:50:59;;;;;;;4.80;3.10;;;;;;;;;;5017122;28;20210;-86
2023/08/07 04:53:28;;;;;;;5.17;2.70;;;;;;;;;;5017900;28;20216;-87
2023/08/07 04:55:56;;;;;;;6.90;3.07;;;;;;;;;;5018116;28;20294;-87
2023/08/07 04:58:25;;;;;;;10.40;3.77;;;;;;;;;;5018155;28;20200;-86
2023/08/07 05:00:56;;;;;;;14.90;4.07;;;;;;;;;;5018665;28;20204;-87
2023/08/07 05:03:26;;;;;;;10.30;3.13;;;;;;;;;;5019164;28;20248;-87
2023/08/07 05:06:01;;;;;;;1.87;1.47;;;;;;;;;;5018360;28;20271;-87
2023/08/07 05:08:29;;;;;;;4.93;2.07;;;;;;;;;;5017560;28;20220;-87
2023/08/07 05:10:58;;;;;;;4.60;2.73;;;;;;;;;;5017227;28;20198;-86
2023/08/07 05:13:26;;;;;;;4.73;2.87;;;;;;;;;;5017039;28;20215;-86
2023/08/07 05:15:55;;;;;;;10.40;2.83;;;;;;;;;;5016229;28;20267;-85
2023/08/07 05:18:23;;;;;;;8.80;2.77;;;;;;;;;;5015578;28;20202;-86
2023/08/07 05:20:52;;;;;;;2.17;2.03;;;;;;;;;;5015605;28;20208;-86
2023/08/07 05:23:22;;;;;;;4.53;2.17;;;;;;;;;;5015727;28;20212;-86
2023/08/07 05:25:50;;;;;;;4.93;2.47;;;;;;;;;;5015048;28;20206;-85
2023/08/07 05:28:19;;;;;;;2.37;1.23;;;;;;;;;;5015220;28;20324;-86
2023/08/07 05:30:47;;;;;;;10.70;3.13;;;;;;;;;;5015269;28;20214;-85
2023/08/07 05:33:16;;;;;;;5.57;2.37;;;;;;;;;;5014505;28;20207;-86
2023/08/07 05:35:44;;;;;;;11.63;3.57;;;;;;;;;;5014819;28;20209;-85
2023/08/07 05:38:13;;;;;;;10.83;3.37;;;;;;;;;;5015203;28;20187;-85
2023/08/07 05:40:43;;;;;;;8.70;2.80;;;;;;;;;;5015183;28;20202;-86
2023/08/07 05:43:12;;;;;;;6.83;2.90;;;;;;;;;;5014029;28;20211;-85
2023/08/07 05:45:46;;;;;;;9.83;2.80;;;;;;;;;;5014553;28;20204;-85
2023/08/07 05:48:14;;;;;;;11.80;1.70;;;;;;;;;;5014745;28;20228;-84
2023/08/07 05:50:43;;;;;;;15.57;3.57;;;;;;;;;;5014915;28;20203;-85
2023/08/07 05:53:11;;;;;;;8.30;3.70;;;;;;;;;;5014670;28;20218;-85
2023/08/07 05:55:42;;;;;;;5.03;2.53;;;;;;;;;;5014407;28;20199;-85
2023/08/07 05:58:11;;;;;;;10.73;3.30;;;;;;;;;;5014838;28;20202;-85
2023/08/07 06:00:40;;;;;;;3.27;1.93;;;;;;;;;;5013963;28;20211;-85
2023/08/07 06:03:09;;;;;;;3.03;2.27;;;;;;;;;;5014893;28;20234;-88
2023/08/07 06:05:37;;;;;;;2.60;1.20;;;;;;;;;;5014941;28;20198;-87
2023/08/07 06:08:06;;;;;;;4.50;2.83;;;;;;;;;;5014974;28;20217;-87
2023/08/07 06:10:34;;;;;;;5.27;2.03;;;;;;;;;;5014745;28;20197;-88
2023/08/07 06:13:03;;;;;;;8.70;3.47;;;;;;;;;;5015215;28;20201;-88
2023/08/07 06:15:34;;;;;;;8.43;2.80;;;;;;;;;;5015020;28;20331;-87
2023/08/07 06:18:02;;;;;;;13.37;3.27;;;;;;;;;;5014730;28;20194;-87
2023/08/07 06:20:31;;;;;;;4.97;3.13;;;;;;;;;;5014903;28;20200;-87
2023/08/07 06:23:00;;;;;;;8.33;2.87;;;;;;;;;;5015050;28;20202;-86
2023/08/07 06:25:28;;;;;;;13.07;5.00;;;;;;;;;;5016423;28;20208;-90
2023/08/07 06:27:57;;;;;;;16.43;4.17;;;;;;;;;;5014044;28;20228;-88
2023/08/07 06:30:25;;;;;;;6.27;4.10;;;;;;;;;;5014433;28;20200;-87
2023/08/07 06:32:56;;;;;;;17.97;2.83;;;;;;;;;;5014259;28;20212;-87
2023/08/07 06:35:33;;;;;;;6.23;1.40;;;;;;;;;;5010229;28;20236;-85
2023/08/07 06:38:05;;;;;;;2.73;2.50;;;;;;;;;;5001488;28;20200;-87
2023/08/07 06:40:37;;;;;;;10.10;4.10;;;;;;;;;;5013984;28;20404;-81
2023/08/07 06:43:06;;;;;;;4.70;2.87;;;;;;;;;;5013291;28;20208;-81
2023/08/07 06:45:37;;;;;;;3.07;2.77;;;;;;;;;;5013305;28;20266;-81
2023/08/07 06:48:07;;;;;;;5.50;2.00;;;;;;;;;;5013827;28;20234;-82
2023/08/07 06:50:36;;;;;;;5.37;3.07;;;;;;;;;;5014065;28;20226;-82
2023/08/07 06:53:05;;;;;;;6.83;2.33;;;;;;;;;;5014071;28;20471;-82
2023/08/07 06:55:34;;;;;;;6.07;3.70;;;;;;;;;;5013675;28;20209;-82
2023/08/07 06:58:02;;;;;;;6.33;3.30;;;;;;;;;;5013253;28;20254;-83
2023/08/07 07:00:31;;;;;;;7.00;2.93;;;;;;;;;;5014097;28;20271;-82
2023/08/07 07:02:59;;;;;;;10.83;3.33;;;;;;;;;;5013499;28;20225;-83
2023/08/07 07:05:30;;;;;;;14.37;4.20;;;;;;;;;;5013768;28;20211;-82
2023/08/07 07:07:59;;;;;;;12.63;3.57;;;;;;;;;;5012453;28;20227;-83
2023/08/07 07:10:27;;;;;;;5.30;2.97;;;;;;;;;;5013698;28;20196;-82
2023/08/07 07:12:56;;;;;;;6.20;3.97;;;;;;;;;;5013288;28;20203;-81
2023/08/07 07:15:25;;;;;;;7.73;2.13;;;;;;;;;;5013458;28;20239;-81
2023/08/07 07:17:53;;;;;;;6.63;2.47;;;;;;;;;;5012414;28;20223;-82
2023/08/07 07:20:22;;;;;;;1.40;1.30;;;;;;;;;;5012609;28;20204;-82
2023/08/07 07:22:52;;;;;;;14.50;3.73;;;;;;;;;;5013037;28;20275;-82
2023/08/07 07:25:20;;;;;;;14.80;3.47;;;;;;;;;;5013197;28;20201;-83
2023/08/07 07:27:49;;;;;;;11.80;4.80;;;;;;;;;;5013159;28;20206;-83
2023/08/07 07:30:17;;;;;;;6.67;3.13;;;;;;;;;;5012841;28;20212;-83
2023/08/07 07:32:46;;;;;;;6.87;2.83;;;;;;;;;;5013754;28;20254;-81
2023/08/07 07:35:15;;;;;;;3.23;2.00;;;;;;;;;;5013411;28;20295;-82
2023/08/07 07:37:43;;;;;;;5.90;2.10;;;;;;;;;;5012831;28;20189;-82
2023/08/07 07:40:13;;;;;;;7.97;2.70;;;;;;;;;;5013479;28;20235;-82
2023/08/07 07:42:42;;;;;;;1.87;1.70;;;;;;;;;;5014895;28;20212;-88
2023/08/07 07:45:10;;;;;;;9.57;2.57;;;;;;;;;;5015857;28;20212;-87
2023/08/07 07:47:39;;;;;;;4.27;3.10;;;;;;;;;;5015705;28;20202;-86
2023/08/07 07:50:09;;;;;;;7.53;3.40;;;;;;;;;;5017623;28;20216;-85
2023/08/07 07:52:37;;;;;;;12.20;3.27;;;;;;;;;;5015874;28;20201;-81
2023/08/07 07:55:07;;;;;;;5.67;2.17;;;;;;;;;;5012994;28;20209;-81
2023/08/07 07:57:37;;;;;;;7.57;2.50;;;;;;;;;;5012557;28;20264;-83
2023/08/07 08:00:10;;;;;;;5.43;2.50;;;;;;;;;;5013244;28;20192;-82
2023/08/07 08:02:38;;;;;;;1.83;1.73;;;;;;;;;;5013088;28;20472;-82
2023/08/07 08:05:12;;;;;;;4.80;2.03;;;;;;;;;;5012498;28;20205;-83
2023/08/07 08:07:41;;;;;;;11.33;2.53;;;;;;;;;;5013609;28;20205;-82
2023/08/07 08:10:09;;;;;;;2.63;1.50;;;;;;;;;;5012912;28;20238;-82
2023/08/07 08:12:39;;;;;;;2.63;1.47;;;;;;;;;;5013192;28;20212;-82
2023/08/07 08:15:08;;;;;;;1.27;1.17;;;;;;;;;;5012659;28;20252;-82
2023/08/07 08:17:40;;;;;;;6.50;2.00;;;;;;;;;;5013107;28;20209;-82
2023/08/07 08:20:09;;;;;;;2.67;1.63;;;;;;;;;;5013422;28;20206;-81
2023/08/07 08:22:37;;;;;;;5.93;2.83;;;;;;;;;;5012935;28;20206;-82
2023/08/07 08:25:06;;;;;;;2.17;1.93;;;;;;;;;;5012858;28;20284;-81
2023/08/07 08:27:35;;;;;;;1.27;1.17;;;;;;;;;;5012854;28;20200;-82
2023/08/07 08:30:09;;;;;;;8.33;1.87;;;;;;;;;;5013019;28;20379;-82
2023/08/07 08:32:37;;;;;;;7.47;2.27;;;;;;;;;;5013274;28;20199;-83
2023/08/07 08:35:06;;;;;;;11.27;2.60;;;;;;;;;;5013491;28;20231;-83
2023/08/07 08:37:35;;;;;;;2.57;2.33;;;;;;;;;;5013219;28;20207;-83
2023/08/07 08:40:04;;;;;;;3.60;1.47;;;;;;;;;;5013286;28;20390;-83
2023/08/07 08:42:32;;;;;;;6.80;2.50;;;;;;;;;;5013164;28;20213;-81
2023/08/07 08:45:01;;;;;;;1.60;1.37;;;;;;;;;;5013350;28;20213;-81
2023/08/07 08:47:34;;;;;;;4.27;1.53;;;;;;;;;;5012917;28;20293;-81
2023/08/07 08:50:06;;;;;;;7.67;3.13;;;;;;;;;;5012832;28;20327;-82
2023/08/07 08:52:35;;;;;;;1.53;1.40;;;;;;;;;;5012853;28;20213;-82
2023/08/07 08:55:03;;;;;;;2.43;2.10;;;;;;;;;;5013357;28;20213;-82
2023/08/07 08:57:32;;;;;;;11.27;2.70;;;;;;;;;;5012758;28;20218;-82
2023/08/07 09:00:02;;;;;;;3.40;1.17;;;;;;;;;;5013324;28;20225;-82
2023/08/07 09:02:30;;;;;;;1.63;1.47;;;;;;;;;;5013441;28;20279;-82
2023/08/07 09:05:00;;;;;;;5.93;2.57;;;;;;;;;;5013402;28;20231;-83
2023/08/07 09:07:29;;;;;;;10.33;1.83;;;;;;;;;;5014944;28;20206;-82
2023/08/07 09:09:59;;;;;;;5.77;3.03;;;;;;;;;;5016819;28;20227;-82
2023/08/07 09:12:28;;;;;;;1.60;1.30;;;;;;;;;;5016749;28;20206;-82
2023/08/07 09:14:58;;;;;;;0.60;0.60;;;;;;;;;;5016351;28;20329;-81
2023/08/07 09:17:29;;;;;;;2.67;1.40;;;;;;;;;;5016391;28;20216;-81
2023/08/07 09:19:58;;;;;;;3.63;1.47;;;;;;;;;;5016391;28;20198;-82
2023/08/07 09:22:28;;;;;;;3.23;1.87;;;;;;;;;;5016183;28;20209;-82
2023/08/07 09:25:00;;;;;;;3.40;1.60;;;;;;;;;;5016832;28;20238;-84
2023/08/07 09:27:28;;;;;;;5.37;1.90;;;;;;;;;;5016711;28;20297;-84
2023/08/07 09:29:57;;;;;;;4.07;1.70;;;;;;;;;;5015880;28;20260;-85
2023/08/07 09:32:28;;;;;;;2.33;1.43;;;;;;;;;;5015014;28;20204;-85
2023/08/07 09:34:56;;;;;;;6.43;2.60;;;;;;;;;;5015849;28;20196;-85
2023/08/07 09:37:25;;;;;;;1.97;1.30;;;;;;;;;;5015790;28;20254;-85
2023/08/07 09:39:55;;;;;;;3.17;1.93;;;;;;;;;;5015400;28;20221;-85
2023/08/07 09:42:24;;;;;;;4.60;0.93;;;;;;;;;;5015259;28;20202;-85
2023/08/07 09:44:52;;;;;;;9.43;2.13;;;;;;;;;;5016114;28;20201;-85
2023/08/07 09:47:21;;;;;;;4.70;1.23;;;;;;;;;;5015674;28;20199;-85
2023/08/07 09:49:49;;;;;;;3.23;1.73;;;;;;;;;;5016155;28;20250;-85
2023/08/07 09:52:18;;;;;;;2.87;1.57;;;;;;;;;;5015485;28;20298;-84
2023/08/07 09:54:46;;;;;;;6.83;2.63;;;;;;;;;;5016495;28;20375;-84
2023/08/07 09:57:16;;;;;;;3.87;1.47;;;;;;;;;;5014537;28;20199;-84
2023/08/07 09:59:52;;;;;;;2.67;1.83;;;;;;;;;;5013845;28;20282;-84
2023/08/07 10:02:21;;;;;;;5.20;2.60;;;;;;;;;;5014803;28;20199;-85
2023/08/07 10:04:51;;;;;;;3.30;1.77;;;;;;;;;;5014223;28;20215;-84
2023/08/07 10:07:21;;;;;;;2.03;1.47;;;;;;;;;;5014336;28;20200;-84
2023/08/07 10:09:49;;;;;;;4.13;2.07;;;;;;;;;;5014186;28;20243;-84
2023/08/07 10:12:19;;;;;;;3.17;1.53;;;;;;;;;;5014627;28;20203;-84
2023/08/07 10:14:50;;;;;;;6.37;1.87;;;;;;;;;;5014189;28;20302;-84
2023/08/07 10:17:18;;;;;;;4.13;2.50;;;;;;;;;;5013996;28;20274;-84
2023/08/07 10:19:49;;;;;;;4.10;1.57;;;;;;;;;;5013304;28;20204;-85
2023/08/07 10:22:18;;;;;;;2.23;1.43;;;;;;;;;;5014276;28;20199;-84
2023/08/07 10:24:49;;;;;;;3.30;1.70;;;;;;;;;;5013993;28;20271;-84
2023/08/07 10:27:20;;;;;;;3.37;1.40;;;;;;;;;;5014010;28;20207;-84
2023/08/07 10:29:50;;;;;;;4.33;1.13;;;;;;;;;;5014252;28;20266;-81
2023/08/07 10:32:21;;;;;;;3.10;1.03;;;;;;;;;;5014623;28;20247;-82
2023/08/07 10:34:51;;;;;;;1.83;0.90;;;;;;;;;;5013370;28;20204;-84
2023/08/07 10:37:34;;;;;;;1.40;1.27;;;;;;;;;;5013959;28;20200;-84
2023/08/07 10:40:03;;;;;;;2.43;1.10;;;;;;;;;;5013809;28;20227;-84
2023/08/07 10:42:51;;;;;;;10.93;2.10;;;;;;;;;;5013581;28;20207;-85
2023/08/07 10:45:22;;;;;;;2.97;1.43;;;;;;;;;;5013246;28;20261;-85
2023/08/07 10:48:03;;;;;;;6.13;2.33;;;;;;;;;;5013559;28;20203;-85
2023/08/07 10:50:32;;;;;;;4.70;2.17;;;;;;;;;;5013688;28;20321;-84
2023/08/07 10:53:01;;;;;;;4.10;2.47;;;;;;;;;;5014015;28;20203;-85
2023/08/07 10:55:33;;;;;;;6.60;2.33;;;;;;;;;;5013489;28;20211;-84
2023/08/07 10:58:05;;;;;;;2.17;1.23;;;;;;;;;;5013806;28;20204;-85
2023/08/07 11:00:34;;;;;;;9.93;2.63;;;;;;;;;;5013922;28;20262;-85
2023/08/07 11:03:03;;;;;;;7.53;2.27;;;;;;;;;;5013533;28;20243;-85
2023/08/07 11:05:32;;;;;;;3.60;0.97;;;;;;;;;;5013945;28;20254;-85
2023/08/07 11:08:00;;;;;;;2.73;1.53;;;;;;;;;;5013332;28;20192;-85
2023/08/07 11:10:29;;;;;;;6.77;2.23;;;;;;;;;;5012856;28;20235;-84
2023/08/07 11:12:59;;;;;;;4.00;2.00;;;;;;;;;;5013621;28;20201;-85
2023/08/07 11:15:30;;;;;;;4.30;1.60;;;;;;;;;;5013203;28;20250;-85
2023/08/07 11:17:58;;;;;;;2.63;1.40;;;;;;;;;;5013028;28;20196;-86
2023/08/07 11:20:27;;;;;;;4.80;1.70;;;;;;;;;;5013034;28;20206;-86
2023/08/07 11:22:56;;;;;;;3.00;1.90;;;;;;;;;;5013892;28;20211;-86
2023/08/07 11:25:25;;;;;;;7.53;2.00;;;;;;;;;;5013882;28;20248;-86
2023/08/07 11:27:53;;;;;;;4.30;1.37;;;;;;;;;;5012826;28;20196;-86
2023/08/07 11:30:22;;;;;;;2.50;1.37;;;;;;;;;;5013165;28;20298;-84
2023/08/07 11:32:52;;;;;;;2.73;1.07;;;;;;;;;;5012998;28;20204;-84
2023/08/07 11:35:21;;;;;;;1.97;1.87;;;;;;;;;;5012666;28;20290;-85
2023/08/07 11:37:50;;;;;;;0.57;0.57;;;;;;;;;;5013074;28;20203;-85
2023/08/07 11:40:19;;;;;;;2.87;1.37;;;;;;;;;;5012760;28;20208;-84
2023/08/07 11:42:47;;;;;;;6.30;3.33;;;;;;;;;;5012957;28;20207;-84
2023/08/07 11:45:16;;;;;;;1.10;1.07;;;;;;;;;;5012251;28;20196;-84
2023/08/07 11:47:45;;;;;;;2.47;1.73;;;;;;;;;;5013034;28;20229;-85
2023/08/07 11:50:16;;;;;;;2.77;1.60;;;;;;;;;;5012514;28;20211;-86
2023/08/07 11:52:45;;;;;;;2.63;1.23;;;;;;;;;;5012286;28;20531;-85
2023/08/07 11:55:15;;;;;;;2.97;1.50;;;;;;;;;;5012431;28;20206;-85
2023/08/07 11:57:45;;;;;;;2.53;1.73;;;;;;;;;;5012396;28;20200;-85
2023/08/07 12:00:14;;;;;;;1.63;1.17;;;;;;;;;;5013418;28;20211;-85
2023/08/07 12:02:46;;;;;;;7.97;2.30;;;;;;;;;;5012925;28;20196;-85
2023/08/07 12:05:16;;;;;;;4.43;1.70;;;;;;;;;;5012231;28;20246;-85
2023/08/07 12:07:45;;;;;;;5.47;1.50;;;;;;;;;;5012874;28;20298;-85
2023/08/07 12:10:14;;;;;;;6.10;2.40;;;;;;;;;;5012741;28;20200;-85
2023/08/07 12:12:44;;;;;;;7.83;1.90;;;;;;;;;;5012334;28;20223;-86
2023/08/07 12:15:13;;;;;;;3.43;1.93;;;;;;;;;;5012533;28;20227;-86
2023/08/07 12:17:41;;;;;;;0.70;0.70;;;;;;;;;;5012423;28;20220;-86
2023/08/07 12:20:11;;;;;;;9.27;2.07;;;;;;;;;;5012585;28;20212;-85
2023/08/07 12:22:43;;;;;;;1.23;1.20;;;;;;;;;;5012594;28;20204;-85
2023/08/07 12:25:12;;;;;;;1.17;0.90;;;;;;;;;;5012547;28;20204;-85
2023/08/07 12:27:40;;;;;;;3.90;1.70;;;;;;;;;;5012362;28;20220;-85
2023/08/07 12:30:09;;;;;;;1.07;0.90;;;;;;;;;;5012266;28;20203;-85
2023/08/07 12:32:38;;;;;;;3.13;1.67;;;;;;;;;;5012130;28;20220;-85
2023/08/07 12:35:09;;;;;;;7.40;1.90;;;;;;;;;;5012512;28;20294;-85
2023/08/07 12:37:41;;;;;;;4.10;1.30;;;;;;;;;;5012324;28;20203;-85
2023/08/07 12:40:11;;;;;;;5.47;1.80;;;;;;;;;;5012445;28;20300;-85
2023/08/07 12:42:42;;;;;;;1.63;1.13;;;;;;;;;;5014995;28;20197;-86
2023/08/07 12:45:11;;;;;;;2.67;1.30;;;;;;;;;;5016184;28;20219;-85
2023/08/07 12:47:41;;;;;;;5.27;1.63;;;;;;;;;;5015216;28;20260;-85
2023/08/07 12:50:10;;;;;;;1.73;1.27;;;;;;;;;;5015976;28;20208;-85
2023/08/07 12:52:39;;;;;;;5.20;2.03;;;;;;;;;;5016043;28;20225;-86
2023/08/07 12:55:09;;;;;;;4.17;1.73;;;;;;;;;;5015413;28;20197;-85
2023/08/07 12:57:38;;;;;;;4.33;1.63;;;;;;;;;;5015414;28;20209;-86
2023/08/07 13:00:08;;;;;;;4.07;2.00;;;;;;;;;;5015874;28;20230;-86
2023/08/07 13:02:38;;;;;;;0.80;0.80;;;;;;;;;;5015767;28;20218;-86
2023/08/07 13:05:08;;;;;;;1.10;1.00;;;;;;;;;;5015193;28;20205;-85
2023/08/07 13:07:37;;;;;;;4.23;1.87;;;;;;;;;;5016540;28;20374;-85
2023/08/07 13:10:06;;;;;;;1.90;1.13;;;;;;;;;;5016070;28;20202;-85
2023/08/07 13:12:36;;;;;;;4.00;1.90;;;;;;;;;;5015526;28;20216;-85
2023/08/07 13:15:08;;;;;;;5.23;2.23;;;;;;;;;;5015976;28;20240;-85
2023/08/07 13:17:38;;;;;;;2.10;1.13;;;;;;;;;;5016527;28;20204;-86
2023/08/07 13:20:07;;;;;;;2.20;1.37;;;;;;;;;;5016574;28;20201;-84
2023/08/07 13:22:36;;;;;;;2.37;1.30;;;;;;;;;;5015165;28;20222;-85
2023/08/07 13:25:05;;;;;;;2.37;1.20;;;;;;;;;;5015821;28;20200;-86
2023/08/07 13:27:34;;;;;;;7.90;1.80;;;;;;;;;;5014960;28;20202;-85
2023/08/07 13:30:04;;;;;;;3.97;1.93;;;;;;;;;;5015090;28;20202;-84
2023/08/07 13:32:33;;;;;;;1.50;1.40;;;;;;;;;;5015094;28;20216;-85
2023/08/07 13:35:03;;;;;;;0.93;0.93;;;;;;;;;;5015648;28;20205;-85
2023/08/07 13:37:31;;;;;;;3.10;2.77;;;;;;;;;;5015649;28;20239;-85
2023/08/07 13:40:00;;;;;;;2.43;1.10;;;;;;;;;;5015363;28;20204;-85
2023/08/07 13:42:32;;;;;;;1.27;1.13;;;;;;;;;;5015593;28;20303;-85
2023/08/07 13:45:00;;;;;;;4.43;1.70;;;;;;;;;;5015772;28;20204;-85
2023/08/07 13:47:33;;;;;;;1.87;1.30;;;;;;;;;;5015160;28;20203;-87
2023/08/07 13:50:02;;;;;;;1.80;1.67;;;;;;;;;;5014708;28;20211;-84
2023/08/07 13:52:30;;;;;;;5.17;1.80;;;;;;;;;;5015273;28;20223;-84
2023/08/07 13:54:59;;;;;;;3.97;1.50;;;;;;;;;;5015562;28;20209;-85
2023/08/07 13:57:28;;;;;;;5.37;1.90;;;;;;;;;;5014434;28;20232;-85
2023/08/07 13:59:56;;;;;;;1.97;1.83;;;;;;;;;;5014892;28;20201;-85
2023/08/07 14:02:25;;;;;;;5.57;1.73;;;;;;;;;;5014694;28;20197;-85
2023/08/07 14:04:57;;;;;;;3.03;1.93;;;;;;;;;;5014910;28;20227;-86
2023/08/07 14:07:25;;;;;;;3.63;1.40;;;;;;;;;;5014008;28;20250;-85
2023/08/07 14:09:54;;;;;;;5.30;1.37;;;;;;;;;;5014966;28;20223;-84
2023/08/07 14:12:22;;;;;;;3.07;2.07;;;;;;;;;;5015137;28;20244;-85
2023/08/07 14:14:51;;;;;;;1.70;1.40;;;;;;;;;;5014339;28;20200;-85
2023/08/07 14:17:20;;;;;;;6.17;2.00;;;;;;;;;;5014552;28;20255;-85
2023/08/07 14:19:48;;;;;;;3.53;1.50;;;;;;;;;;5014378;28;20203;-85
2023/08/07 14:22:18;;;;;;;1.67;1.47;;;;;;;;;;5014949;28;20196;-84
2023/08/07 14:24:47;;;;;;;3.50;1.80;;;;;;;;;;5014013;28;20201;-84
2023/08/07 14:27:15;;;;;;;3.53;1.70;;;;;;;;;;5014706;28;20196;-84
2023/08/07 14:29:44;;;;;;;1.97;1.87;;;;;;;;;;5014363;28;20267;-86
2023/08/07 14:32:16;;;;;;;2.83;1.73;;;;;;;;;;5014354;28;20216;-86
2023/08/07 14:34:46;;;;;;;1.13;0.90;;;;;;;;;;5014018;28;20204;-85
2023/08/07 14:37:15;;;;;;;2.93;2.07;;;;;;;;;;5014541;28;20200;-85
2023/08/07 14:39:45;;;;;;;3.27;1.63;;;;;;;;;;5014118;28;20239;-85
2023/08/07 14:42:13;;;;;;;3.30;1.57;;;;;;;;;;5013278;28;20207;-86
2023/08/07 14:44:42;;;;;;;3.07;1.97;;;;;;;;;;5014424;28;20273;-85
2023/08/07 14:47:10;;;;;;;4.47;1.37;;;;;;;;;;5014271;28;20196;-86
2023/08/07 14:49:39;;;;;;;2.43;1.30;;;;;;;;;;5013906;28;20309;-85
2023/08/07 14:52:08;;;;;;;2.63;1.70;;;;;;;;;;5013430;28;20222;-86